sensor_id;sensor_type;location;lat;lon;timestamp;pressure;altitude;pressure_sealevel;temperature;humidity
28797;BME280;24974;54.444;18.560;2023-08-06T08:45:56;99621.88;;;24.17;67.43
28797;BME280;24974;54.444;18.560;2023-08-06T08:48:29;99614.41;;;23.60;69.12
28797;BME280;24974;54.444;18.560;2023-08-06T08:51:00;99609.22;;;23.82;68.27
28797;BME280;24974;54.444;18.560;2023-08-06T08:53:33;99602.41;;;23.83;68.42
28797;BME280;24974;54.444;18.560;2023-08-06T08:56:04;99601.78;;;23.71;69.34
28797;BME280;24974;54.444;18.560;2023-08-06T08:58:35;99589.19;;;23.83;68.87
28797;BME280;24974;54.444;18.560;2023-08-06T09:01:06;99591.94;;;24.53;66.80
28797;BME280;24974;54.444;18.560;2023-08-06T09:03:37;99586.72;;;24.09;67.81
28797;BME280;24974;54.444;18.560;2023-08-06T09:06:08;99570.13;;;23.71;69.09
28797;BME280;24974;54.444;18.560;2023-08-06T09:08:43;99571.59;;;24.03;68.37
28797;BME280;24974;54.444;18.560;2023-08-06T09:11:17;99556.00;;;24.21;67.80
28797;BME280;24974;54.444;18.560;2023-08-06T09:13:51;99554.03;;;23.98;68.02
28797;BME280;24974;54.444;18.560;2023-08-06T09:16:21;99546.53;;;23.92;68.40
28797;BME280;24974;54.444;18.560;2023-08-06T09:18:52;99536.59;;;23.87;68.79
28797;BME280;24974;54.444;18.560;2023-08-06T09:21:22;99523.97;;;23.99;68.23
28797;BME280;24974;54.444;18.560;2023-08-06T09:23:53;99523.06;;;23.82;68.88
28797;BME280;24974;54.444;18.560;2023-08-06T09:26:24;99520.22;;;24.06;68.42
28797;BME280;24974;54.444;18.560;2023-08-06T09:28:55;99503.72;;;24.31;66.98
28797;BME280;24974;54.444;18.560;2023-08-06T09:31:32;99497.19;;;23.94;68.87
28797;BME280;24974;54.444;18.560;2023-08-06T09:34:02;99490.50;;;24.28;67.59
28797;BME280;24974;54.444;18.560;2023-08-06T09:36:33;99475.38;;;24.22;68.12
28797;BME280;24974;54.444;18.560;2023-08-06T09:39:06;99478.72;;;24.37;67.89
28797;BME280;24974;54.444;18.560;2023-08-06T09:41:42;99505.00;;;25.02;65.96
28797;BME280;24974;54.444;18.560;2023-08-06T09:44:17;99509.38;;;25.23;64.78
28797;BME280;24974;54.444;18.560;2023-08-06T09:46:48;99509.69;;;25.09;65.38
28797;BME280;24974;54.444;18.560;2023-08-06T09:49:20;99510.78;;;25.15;65.11
28797;BME280;24974;54.444;18.560;2023-08-06T09:51:52;99510.31;;;25.17;65.33
28797;BME280;24974;54.444;18.560;2023-08-06T09:54:26;99502.78;;;25.30;64.22
28797;BME280;24974;54.444;18.560;2023-08-06T09:56:58;99516.75;;;25.50;63.70
28797;BME280;24974;54.444;18.560;2023-08-06T09:59:28;99507.53;;;25.33;64.49
28797;BME280;24974;54.444;18.560;2023-08-06T10:02:00;99509.47;;;25.52;63.62
28797;BME280;24974;54.444;18.560;2023-08-06T10:04:31;99506.50;;;25.27;64.47
28797;BME280;24974;54.444;18.560;2023-08-06T10:07:02;99495.66;;;25.42;64.13
28797;BME280;24974;54.444;18.560;2023-08-06T10:09:33;99495.75;;;25.54;63.30
28797;BME280;24974;54.444;18.560;2023-08-06T10:12:03;99493.56;;;25.29;64.10
28797;BME280;24974;54.444;18.560;2023-08-06T10:14:35;99491.78;;;24.83;65.77
28797;BME280;24974;54.444;18.560;2023-08-06T10:17:07;99489.94;;;24.76;66.06
28797;BME280;24974;54.444;18.560;2023-08-06T10:19:38;99488.81;;;24.90;65.70
28797;BME280;24974;54.444;18.560;2023-08-06T10:22:10;99488.53;;;25.04;65.40
28797;BME280;24974;54.444;18.560;2023-08-06T10:27:30;99474.50;;;25.53;63.77
28797;BME280;24974;54.444;18.560;2023-08-06T10:32:46;99467.09;;;25.59;62.99
28797;BME280;24974;54.444;18.560;2023-08-06T10:38:10;99449.59;;;25.68;63.22
28797;BME280;24974;54.444;18.560;2023-08-06T10:43:25;99423.66;;;25.60;63.20
28797;BME280;24974;54.444;18.560;2023-08-06T10:45:57;99423.81;;;25.70;63.29
28797;BME280;24974;54.444;18.560;2023-08-06T10:48:38;99417.66;;;25.91;62.53
28797;BME280;24974;54.444;18.560;2023-08-06T10:51:13;99417.41;;;25.69;63.32
28797;BME280;24974;54.444;18.560;2023-08-06T10:53:44;99398.53;;;25.53;64.26
28797;BME280;24974;54.444;18.560;2023-08-06T10:56:16;99397.97;;;25.13;65.80
28797;BME280;24974;54.444;18.560;2023-08-06T10:58:47;99392.16;;;25.82;63.94
28797;BME280;24974;54.444;18.560;2023-08-06T11:01:18;99387.34;;;26.37;63.31
28797;BME280;24974;54.444;18.560;2023-08-06T11:03:50;99393.13;;;26.84;61.62
28797;BME280;24974;54.444;18.560;2023-08-06T11:06:21;99388.63;;;26.74;61.19
28797;BME280;24974;54.444;18.560;2023-08-06T11:08:53;99384.94;;;26.64;61.47
28797;BME280;24974;54.444;18.560;2023-08-06T11:11:24;99389.06;;;27.11;60.47
28797;BME280;24974;54.444;18.560;2023-08-06T11:13:54;99386.50;;;26.40;62.04
28797;BME280;24974;54.444;18.560;2023-08-06T11:16:25;99379.81;;;25.92;63.24
28797;BME280;24974;54.444;18.560;2023-08-06T11:18:57;99376.81;;;27.04;60.38
28797;BME280;24974;54.444;18.560;2023-08-06T11:21:30;99375.28;;;26.36;62.31
28797;BME280;24974;54.444;18.560;2023-08-06T11:24:00;99379.09;;;27.44;58.98
28797;BME280;24974;54.444;18.560;2023-08-06T11:26:31;99375.69;;;27.84;57.95
28797;BME280;24974;54.444;18.560;2023-08-06T11:29:02;99373.28;;;28.04;57.02
28797;BME280;24974;54.444;18.560;2023-08-06T11:31:33;99364.38;;;27.84;58.02
28797;BME280;24974;54.444;18.560;2023-08-06T11:34:06;99366.22;;;27.65;57.95
28797;BME280;24974;54.444;18.560;2023-08-06T11:36:40;99359.38;;;27.31;58.82
28797;BME280;24974;54.444;18.560;2023-08-06T11:39:10;99364.50;;;26.86;60.11
28797;BME280;24974;54.444;18.560;2023-08-06T11:41:41;99362.34;;;26.90;60.13
28797;BME280;24974;54.444;18.560;2023-08-06T11:44:13;99357.69;;;26.19;62.31
28797;BME280;24974;54.444;18.560;2023-08-06T11:46:53;99354.81;;;26.48;61.56
28797;BME280;24974;54.444;18.560;2023-08-06T11:52:18;99359.19;;;26.62;61.07
28797;BME280;24974;54.444;18.560;2023-08-06T11:55:02;99352.44;;;26.85;61.30
28797;BME280;24974;54.444;18.560;2023-08-06T11:57:34;99342.75;;;26.73;61.25
28797;BME280;24974;54.444;18.560;2023-08-06T12:00:09;99337.13;;;27.33;59.85
28797;BME280;24974;54.444;18.560;2023-08-06T12:02:43;99337.97;;;27.21;60.22
28797;BME280;24974;54.444;18.560;2023-08-06T12:05:15;99332.94;;;27.38;59.88
28797;BME280;24974;54.444;18.560;2023-08-06T12:07:48;99332.88;;;28.38;57.17
28797;BME280;24974;54.444;18.560;2023-08-06T12:10:19;99331.75;;;28.76;56.55
28797;BME280;24974;54.444;18.560;2023-08-06T12:12:50;99326.13;;;28.36;57.39
28797;BME280;24974;54.444;18.560;2023-08-06T12:15:22;99324.84;;;28.77;56.15
28797;BME280;24974;54.444;18.560;2023-08-06T12:17:53;99319.47;;;28.61;57.16
28797;BME280;24974;54.444;18.560;2023-08-06T12:20:24;99310.97;;;28.61;56.64
28797;BME280;24974;54.444;18.560;2023-08-06T12:22:54;99307.09;;;28.77;56.52
28797;BME280;24974;54.444;18.560;2023-08-06T12:25:25;99308.34;;;27.82;58.23
28797;BME280;24974;54.444;18.560;2023-08-06T12:27:56;99298.19;;;28.47;55.81
28797;BME280;24974;54.444;18.560;2023-08-06T12:30:26;99297.59;;;28.52;56.02
28797;BME280;24974;54.444;18.560;2023-08-06T12:32:57;99297.44;;;28.15;57.31
28797;BME280;24974;54.444;18.560;2023-08-06T12:35:27;99288.25;;;28.74;55.76
28797;BME280;24974;54.444;18.560;2023-08-06T12:37:58;99275.88;;;28.89;55.27
28797;BME280;24974;54.444;18.560;2023-08-06T12:40:29;99269.34;;;30.26;52.55
28797;BME280;24974;54.444;18.560;2023-08-06T12:42:59;99264.41;;;30.93;51.50
28797;BME280;24974;54.444;18.560;2023-08-06T12:45:30;99252.81;;;31.06;50.16
28797;BME280;24974;54.444;18.560;2023-08-06T12:48:01;99258.97;;;31.28;50.13
28797;BME280;24974;54.444;18.560;2023-08-06T12:50:32;99255.28;;;32.25;48.15
28797;BME280;24974;54.444;18.560;2023-08-06T12:53:05;99253.13;;;32.35;48.25
28797;BME280;24974;54.444;18.560;2023-08-06T12:55:36;99241.22;;;32.01;47.62
28797;BME280;24974;54.444;18.560;2023-08-06T12:58:07;99239.59;;;32.15;47.58
28797;BME280;24974;54.444;18.560;2023-08-06T13:00:37;99230.75;;;31.93;47.15
28797;BME280;24974;54.444;18.560;2023-08-06T13:03:08;99226.88;;;32.11;47.45
28797;BME280;24974;54.444;18.560;2023-08-06T13:05:38;99224.84;;;31.82;48.42
28797;BME280;24974;54.444;18.560;2023-08-06T13:08:09;99223.56;;;31.68;49.08
28797;BME280;24974;54.444;18.560;2023-08-06T13:10:40;99214.41;;;33.19;45.74
28797;BME280;24974;54.444;18.560;2023-08-06T13:13:10;99218.31;;;33.42;45.17
28797;BME280;24974;54.444;18.560;2023-08-06T13:15:41;99218.63;;;32.27;46.50
28797;BME280;24974;54.444;18.560;2023-08-06T13:18:12;99216.22;;;32.06;47.48
28797;BME280;24974;54.444;18.560;2023-08-06T13:20:42;99217.00;;;31.08;49.65
28797;BME280;24974;54.444;18.560;2023-08-06T13:23:13;99211.59;;;30.05;52.11
28797;BME280;24974;54.444;18.560;2023-08-06T13:25:46;99209.22;;;29.71;53.02
28797;BME280;24974;54.444;18.560;2023-08-06T13:28:16;99196.88;;;29.92;52.24
28797;BME280;24974;54.444;18.560;2023-08-06T13:30:47;99192.53;;;29.73;52.57
28797;BME280;24974;54.444;18.560;2023-08-06T13:33:18;99187.16;;;29.84;53.18
28797;BME280;24974;54.444;18.560;2023-08-06T13:35:48;99188.13;;;30.71;51.35
28797;BME280;24974;54.444;18.560;2023-08-06T13:38:21;99180.28;;;31.88;48.97
28797;BME280;24974;54.444;18.560;2023-08-06T13:40:51;99183.63;;;32.21;47.89
28797;BME280;24974;54.444;18.560;2023-08-06T13:43:22;99181.28;;;32.55;47.71
28797;BME280;24974;54.444;18.560;2023-08-06T13:45:53;99172.03;;;33.01;46.85
28797;BME280;24974;54.444;18.560;2023-08-06T13:48:24;99163.91;;;33.66;44.70
28797;BME280;24974;54.444;18.560;2023-08-06T13:50:54;99162.72;;;33.78;44.46
28797;BME280;24974;54.444;18.560;2023-08-06T13:53:25;99153.34;;;34.04;43.97
28797;BME280;24974;54.444;18.560;2023-08-06T13:56:00;99142.25;;;34.17;43.44
28797;BME280;24974;54.444;18.560;2023-08-06T13:58:30;99147.56;;;34.35;42.59
28797;BME280;24974;54.444;18.560;2023-08-06T14:01:01;99155.53;;;34.20;42.69
28797;BME280;24974;54.444;18.560;2023-08-06T14:03:31;99138.56;;;33.16;44.93
28797;BME280;24974;54.444;18.560;2023-08-06T14:06:02;99135.28;;;33.23;44.94
28797;BME280;24974;54.444;18.560;2023-08-06T14:08:33;99145.81;;;33.37;44.54
28797;BME280;24974;54.444;18.560;2023-08-06T14:11:03;99143.75;;;32.92;45.92
28797;BME280;24974;54.444;18.560;2023-08-06T14:13:35;99129.91;;;32.59;47.05
28797;BME280;24974;54.444;18.560;2023-08-06T14:16:06;99128.63;;;32.24;47.52
28797;BME280;24974;54.444;18.560;2023-08-06T14:18:37;99123.34;;;31.97;47.74
28797;BME280;24974;54.444;18.560;2023-08-06T14:21:08;99119.38;;;31.59;48.56
28797;BME280;24974;54.444;18.560;2023-08-06T14:23:39;99120.75;;;31.05;50.26
28797;BME280;24974;54.444;18.560;2023-08-06T14:26:12;99119.16;;;30.89;50.87
28797;BME280;24974;54.444;18.560;2023-08-06T14:28:45;99104.34;;;30.22;52.27
28797;BME280;24974;54.444;18.560;2023-08-06T14:31:16;99113.44;;;30.02;52.42
28797;BME280;24974;54.444;18.560;2023-08-06T14:33:47;99111.44;;;29.42;53.96
28797;BME280;24974;54.444;18.560;2023-08-06T14:36:18;99100.28;;;29.57;53.58
28797;BME280;24974;54.444;18.560;2023-08-06T14:38:49;99087.19;;;29.69;53.74
28797;BME280;24974;54.444;18.560;2023-08-06T14:41:20;99095.09;;;29.46;53.88
28797;BME280;24974;54.444;18.560;2023-08-06T14:43:50;99100.16;;;29.33;54.62
28797;BME280;24974;54.444;18.560;2023-08-06T14:46:22;99097.41;;;29.06;54.57
28797;BME280;24974;54.444;18.560;2023-08-06T14:48:52;99089.09;;;28.93;55.15
28797;BME280;24974;54.444;18.560;2023-08-06T14:51:23;99080.16;;;28.67;56.30
28797;BME280;24974;54.444;18.560;2023-08-06T14:53:53;99072.59;;;28.36;56.78
28797;BME280;24974;54.444;18.560;2023-08-06T14:56:24;99077.44;;;28.27;57.07
28797;BME280;24974;54.444;18.560;2023-08-06T14:58:54;99085.91;;;28.18;57.93
28797;BME280;24974;54.444;18.560;2023-08-06T15:01:25;99108.78;;;28.01;57.78
28797;BME280;24974;54.444;18.560;2023-08-06T15:03:56;99103.44;;;28.03;58.45
28797;BME280;24974;54.444;18.560;2023-08-06T15:06:26;99088.34;;;27.88;58.66
28797;BME280;24974;54.444;18.560;2023-08-06T15:08:57;99087.88;;;27.90;59.04
28797;BME280;24974;54.444;18.560;2023-08-06T15:11:31;99078.91;;;27.82;59.54
28797;BME280;24974;54.444;18.560;2023-08-06T15:14:01;99070.88;;;27.71;60.06
28797;BME280;24974;54.444;18.560;2023-08-06T15:16:35;99099.28;;;27.68;60.99
28797;BME280;24974;54.444;18.560;2023-08-06T15:19:06;99140.72;;;27.58;61.20
28797;BME280;24974;54.444;18.560;2023-08-06T15:21:36;99135.28;;;26.89;63.06
28797;BME280;24974;54.444;18.560;2023-08-06T15:24:07;99124.28;;;26.47;64.23
28797;BME280;24974;54.444;18.560;2023-08-06T15:26:37;99114.72;;;27.32;62.01
28797;BME280;24974;54.444;18.560;2023-08-06T15:29:08;99125.00;;;27.70;60.62
28797;BME280;24974;54.444;18.560;2023-08-06T15:31:39;99114.41;;;27.30;62.31
28797;BME280;24974;54.444;18.560;2023-08-06T15:34:10;99091.81;;;27.52;61.72
28797;BME280;24974;54.444;18.560;2023-08-06T15:36:41;99080.81;;;27.45;62.16
28797;BME280;24974;54.444;18.560;2023-08-06T15:39:11;99078.31;;;26.72;64.19
28797;BME280;24974;54.444;18.560;2023-08-06T15:41:42;99068.31;;;27.02;63.58
28797;BME280;24974;54.444;18.560;2023-08-06T15:44:13;99051.06;;;27.22;62.60
28797;BME280;24974;54.444;18.560;2023-08-06T15:46:44;99046.81;;;27.17;62.66
28797;BME280;24974;54.444;18.560;2023-08-06T15:49:14;99036.13;;;27.43;61.92
28797;BME280;24974;54.444;18.560;2023-08-06T15:51:45;99041.28;;;27.04;63.00
28797;BME280;24974;54.444;18.560;2023-08-06T15:54:15;99041.25;;;26.83;63.67
28797;BME280;24974;54.444;18.560;2023-08-06T15:56:46;99057.19;;;26.76;63.67
28797;BME280;24974;54.444;18.560;2023-08-06T15:59:20;99071.31;;;27.29;62.64
28797;BME280;24974;54.444;18.560;2023-08-06T16:01:52;99078.50;;;27.21;62.82
28797;BME280;24974;54.444;18.560;2023-08-06T16:04:22;99078.38;;;26.81;63.96
28797;BME280;24974;54.444;18.560;2023-08-06T16:06:53;99091.25;;;27.04;63.27
28797;BME280;24974;54.444;18.560;2023-08-06T16:09:24;99102.09;;;27.15;62.96
28797;BME280;24974;54.444;18.560;2023-08-06T16:11:55;99119.66;;;26.28;65.82
28797;BME280;24974;54.444;18.560;2023-08-06T16:14:25;99177.97;;;25.38;69.67
28797;BME280;24974;54.444;18.560;2023-08-06T16:16:56;99152.44;;;26.34;66.59
28797;BME280;24974;54.444;18.560;2023-08-06T16:19:27;99142.09;;;26.18;67.02
28797;BME280;24974;54.444;18.560;2023-08-06T16:21:58;99133.59;;;25.04;71.26
28797;BME280;24974;54.444;18.560;2023-08-06T16:24:28;99120.03;;;25.41;69.61
28797;BME280;24974;54.444;18.560;2023-08-06T16:26:59;99114.56;;;25.88;68.41
28797;BME280;24974;54.444;18.560;2023-08-06T16:29:30;99100.81;;;26.37;66.68
28797;BME280;24974;54.444;18.560;2023-08-06T16:32:00;99095.84;;;26.54;65.71
28797;BME280;24974;54.444;18.560;2023-08-06T16:34:31;99110.09;;;26.72;65.29
28797;BME280;24974;54.444;18.560;2023-08-06T16:37:05;99107.88;;;26.89;65.21
28797;BME280;24974;54.444;18.560;2023-08-06T16:39:36;99097.81;;;26.66;65.83
28797;BME280;24974;54.444;18.560;2023-08-06T16:42:07;99088.19;;;26.76;65.50
28797;BME280;24974;54.444;18.560;2023-08-06T16:44:37;99084.53;;;26.89;65.17
28797;BME280;24974;54.444;18.560;2023-08-06T16:47:08;99092.72;;;26.96;64.94
28797;BME280;24974;54.444;18.560;2023-08-06T16:49:39;99082.41;;;27.02;64.55
28797;BME280;24974;54.444;18.560;2023-08-06T16:52:10;99084.84;;;26.91;64.82
28797;BME280;24974;54.444;18.560;2023-08-06T16:54:41;99081.78;;;26.76;65.33
28797;BME280;24974;54.444;18.560;2023-08-06T16:57:12;99072.19;;;26.52;66.04
28797;BME280;24974;54.444;18.560;2023-08-06T16:59:42;99079.31;;;26.43;65.83
28797;BME280;24974;54.444;18.560;2023-08-06T17:02:13;99071.63;;;26.57;65.16
28797;BME280;24974;54.444;18.560;2023-08-06T17:04:45;99084.94;;;26.31;65.66
28797;BME280;24974;54.444;18.560;2023-08-06T17:07:16;99087.50;;;26.16;65.71
28797;BME280;24974;54.444;18.560;2023-08-06T17:09:46;99073.66;;;26.56;64.53
28797;BME280;24974;54.444;18.560;2023-08-06T17:12:17;99065.75;;;26.16;65.28
28797;BME280;24974;54.444;18.560;2023-08-06T17:14:50;99063.59;;;26.20;65.18
28797;BME280;24974;54.444;18.560;2023-08-06T17:17:20;99059.00;;;26.14;65.37
28797;BME280;24974;54.444;18.560;2023-08-06T17:19:51;99040.25;;;26.33;64.71
28797;BME280;24974;54.444;18.560;2023-08-06T17:22:22;99016.50;;;26.21;65.07
28797;BME280;24974;54.444;18.560;2023-08-06T17:24:52;99009.03;;;26.40;64.03
28797;BME280;24974;54.444;18.560;2023-08-06T17:27:23;99017.84;;;25.94;65.18
28797;BME280;24974;54.444;18.560;2023-08-06T17:29:53;99012.94;;;25.48;66.98
28797;BME280;24974;54.444;18.560;2023-08-06T17:32:26;99020.09;;;26.21;64.92
28797;BME280;24974;54.444;18.560;2023-08-06T17:34:57;99016.09;;;26.10;65.27
28797;BME280;24974;54.444;18.560;2023-08-06T17:37:27;99007.13;;;26.02;65.34
28797;BME280;24974;54.444;18.560;2023-08-06T17:39:58;99000.94;;;26.07;65.00
28797;BME280;24974;54.444;18.560;2023-08-06T17:42:29;99007.28;;;26.20;64.77
28797;BME280;24974;54.444;18.560;2023-08-06T17:44:59;99013.50;;;26.50;63.54
28797;BME280;24974;54.444;18.560;2023-08-06T17:47:30;99021.78;;;25.97;65.01
28797;BME280;24974;54.444;18.560;2023-08-06T17:50:01;99015.56;;;26.02;64.72
28797;BME280;24974;54.444;18.560;2023-08-06T17:52:31;98995.94;;;26.11;64.88
28797;BME280;24974;54.444;18.560;2023-08-06T17:55:02;98991.97;;;25.87;65.60
28797;BME280;24974;54.444;18.560;2023-08-06T17:57:36;98992.63;;;26.26;64.68
28797;BME280;24974;54.444;18.560;2023-08-06T18:00:07;99004.41;;;26.33;64.40
28797;BME280;24974;54.444;18.560;2023-08-06T18:02:48;99007.34;;;26.42;63.80
28797;BME280;24974;54.444;18.560;2023-08-06T18:05:18;99008.78;;;25.78;66.02
28797;BME280;24974;54.444;18.560;2023-08-06T18:07:49;99016.66;;;26.17;64.84
